createdAt,value
2022-10-10T00:02:11.407Z,0
2022-10-10T00:08:31.484Z,0
2022-10-10T00:14:54.404Z,0
2022-10-10T00:21:14.358Z,0
2022-10-10T00:27:37.366Z,0
2022-10-10T00:33:57.343Z,0
2022-10-10T00:40:20.476Z,0
2022-10-10T00:46:40.322Z,0
2022-10-10T00:53:03.377Z,0
2022-10-10T00:59:23.341Z,0
2022-10-10T01:05:46.433Z,0
2022-10-10T01:12:06.458Z,0
2022-10-10T01:18:30.538Z,0
2022-10-10T01:24:49.380Z,0
2022-10-10T01:31:12.421Z,0
2022-10-10T01:37:32.336Z,0
2022-10-10T01:43:55.356Z,0
2022-10-10T01:50:15.419Z,0
2022-10-10T01:56:38.373Z,0
2022-10-10T02:02:58.398Z,0
2022-10-10T02:09:21.419Z,0
2022-10-10T02:15:41.478Z,0
2022-10-10T02:22:04.445Z,0
2022-10-10T02:28:24.556Z,0
2022-10-10T02:34:47.366Z,0
2022-10-10T02:41:07.400Z,0
2022-10-10T02:47:30.436Z,0
2022-10-10T02:53:50.438Z,0
2022-10-10T03:00:13.433Z,0
2022-10-10T03:06:33.435Z,0
2022-10-10T03:12:56.395Z,0
2022-10-10T03:30:07.731Z,0
2022-10-10T03:36:30.354Z,0
2022-10-10T03:42:50.612Z,0
2022-10-10T03:49:13.453Z,0
2022-10-10T03:55:33.420Z,0
2022-10-10T04:01:56.389Z,0
2022-10-10T04:08:16.402Z,0
2022-10-10T04:14:39.408Z,0
2022-10-10T04:20:59.377Z,0
2022-10-10T04:27:22.375Z,0
2022-10-10T04:33:42.385Z,0
2022-10-10T04:40:05.398Z,0
2022-10-10T04:46:25.433Z,0
2022-10-10T04:52:48.553Z,0
2022-10-10T04:59:08.327Z,0
2022-10-10T05:05:31.463Z,0
2022-10-10T05:11:51.361Z,0
2022-10-10T05:18:14.406Z,0
2022-10-10T05:24:34.331Z,2
2022-10-10T05:30:57.381Z,7
2022-10-10T05:37:17.420Z,21
2022-10-10T05:43:40.477Z,52
2022-10-10T05:50:00.389Z,100
2022-10-10T05:56:23.399Z,160
2022-10-10T06:02:43.544Z,231
2022-10-10T06:09:06.366Z,310
2022-10-10T06:15:26.371Z,389
2022-10-10T06:21:49.688Z,469
2022-10-10T06:28:09.476Z,545
2022-10-10T06:34:32.413Z,617
2022-10-10T06:40:52.422Z,676
2022-10-10T06:47:15.390Z,733
2022-10-10T06:53:35.430Z,789
2022-10-10T06:59:58.436Z,846
2022-10-10T07:06:18.417Z,897
2022-10-10T07:12:44.647Z,955
2022-10-10T07:19:01.447Z,1042
2022-10-10T07:25:24.420Z,1150
2022-10-10T07:31:44.391Z,1265
2022-10-10T07:38:07.372Z,1378
2022-10-10T07:44:29.335Z,1467
2022-10-10T07:50:50.402Z,1535
2022-10-10T07:57:10.546Z,1590
2022-10-10T08:03:33.395Z,1717
2022-10-10T08:09:53.455Z,1819
2022-10-10T08:16:16.494Z,2011
2022-10-10T08:39:58.855Z,2062
2022-10-10T08:46:18.331Z,1994
2022-10-10T08:52:41.381Z,1833
2022-10-10T08:59:01.371Z,1611
2022-10-10T09:05:24.565Z,1697
2022-10-10T09:11:44.386Z,1820
2022-10-10T09:18:07.379Z,1849
2022-10-10T09:24:27.419Z,1844
2022-10-10T09:30:50.336Z,2199
2022-10-10T09:37:13.670Z,2607
2022-10-10T09:43:33.384Z,2725
2022-10-10T09:49:53.393Z,3043
2022-10-10T09:56:16.388Z,3149
2022-10-10T10:02:36.347Z,3279
2022-10-10T10:08:59.362Z,3468
2022-10-10T10:15:19.342Z,3568
2022-10-10T10:21:42.556Z,3806
2022-10-10T10:28:02.329Z,3961
2022-10-10T10:34:25.633Z,4456
2022-10-10T10:40:45.367Z,4736
2022-10-10T10:47:08.318Z,3252
2022-10-10T10:53:28.388Z,4029
2022-10-10T11:00:21.417Z,4451
2022-10-10T11:06:11.539Z,4564
2022-10-10T11:12:34.401Z,3985
2022-10-10T11:18:54.328Z,3604
2022-10-10T11:25:17.382Z,3754
2022-10-10T11:31:37.351Z,3168
2022-10-10T11:38:00.345Z,3228
2022-10-10T11:44:20.385Z,4547
2022-10-10T11:50:43.348Z,4343
2022-10-10T11:57:03.433Z,6083
2022-10-10T12:03:26.325Z,4428
2022-10-10T12:09:46.407Z,4250
2022-10-10T12:16:09.336Z,3177
2022-10-10T12:22:29.350Z,3660
2022-10-10T12:28:52.476Z,3252
2022-10-10T12:35:12.452Z,4601
2022-10-10T12:41:35.372Z,3951
2022-10-10T12:48:07.393Z,3568
2022-10-10T12:54:18.384Z,3123
2022-10-10T13:00:38.337Z,2884
2022-10-10T13:07:01.386Z,2563
2022-10-10T13:13:21.349Z,2723
2022-10-10T13:19:44.323Z,2908
2022-10-10T13:26:04.407Z,2442
2022-10-10T13:32:27.338Z,1990
2022-10-10T13:38:47.354Z,1734
2022-10-10T14:01:53.484Z,2536
2022-10-10T14:08:16.422Z,2100
2022-10-10T14:14:36.365Z,1538
2022-10-10T14:20:59.738Z,1620
2022-10-10T14:27:19.359Z,1594
2022-10-10T14:33:42.317Z,2250
2022-10-10T14:40:02.377Z,3042
2022-10-10T14:46:25.388Z,2018
2022-10-10T14:52:45.366Z,1620
2022-10-10T14:59:08.413Z,1331
2022-10-10T15:05:28.321Z,1019
2022-10-10T15:11:51.390Z,835
2022-10-10T15:18:26.968Z,701
2022-10-10T15:24:34.336Z,691
2022-10-10T15:30:54.353Z,624
2022-10-10T15:37:17.396Z,361
2022-10-10T15:43:37.374Z,351
2022-10-10T15:50:00.410Z,331
2022-10-10T15:56:20.390Z,316
2022-10-10T16:02:43.346Z,282
2022-10-10T16:09:23.812Z,154
2022-10-10T16:15:26.389Z,160
2022-10-10T16:21:47.558Z,71
2022-10-10T16:28:10.436Z,46
2022-10-10T16:34:30.344Z,32
2022-10-10T16:40:57.774Z,20
2022-10-10T16:47:13.370Z,15
2022-10-10T16:53:36.425Z,10
2022-10-10T16:59:56.449Z,4
2022-10-10T17:06:19.322Z,3
2022-10-10T17:12:39.450Z,1
2022-10-10T17:19:02.348Z,0
2022-10-10T17:25:22.343Z,0
2022-10-10T17:31:45.365Z,0
2022-10-10T17:38:21.556Z,0
2022-10-10T17:44:28.425Z,0
2022-10-10T17:50:48.347Z,0
2022-10-10T17:57:11.402Z,0
2022-10-10T18:03:31.371Z,0
2022-10-10T18:09:54.374Z,0
2022-10-10T18:16:14.373Z,0
2022-10-10T18:22:37.339Z,0
2022-10-10T18:28:57.390Z,0
2022-10-10T18:35:20.399Z,0
2022-10-10T18:41:40.362Z,0
2022-10-10T18:48:03.706Z,0
2022-10-10T19:11:26.896Z,0
2022-10-10T19:17:46.336Z,0
2022-10-10T19:24:09.391Z,0
2022-10-10T19:30:29.346Z,0
2022-10-10T19:36:52.361Z,0
2022-10-10T19:43:12.383Z,0
2022-10-10T19:49:35.372Z,0
2022-10-10T19:55:55.377Z,0
2022-10-10T20:02:18.401Z,0
2022-10-10T20:08:38.449Z,0
2022-10-10T20:15:01.535Z,0
2022-10-10T20:21:21.389Z,0
2022-10-10T20:27:44.437Z,0
2022-10-10T20:34:04.346Z,0
2022-10-10T20:40:27.409Z,0
2022-10-10T20:46:47.429Z,0
2022-10-10T20:53:10.356Z,0
2022-10-10T20:59:30.396Z,0
2022-10-10T21:05:53.418Z,0
2022-10-10T21:12:13.388Z,0
2022-10-10T21:18:36.404Z,0
2022-10-10T21:24:56.369Z,0
2022-10-10T21:31:19.404Z,0
2022-10-10T21:37:39.316Z,0
2022-10-10T21:44:02.387Z,0
2022-10-10T21:50:22.367Z,0
2022-10-10T21:56:45.334Z,0
2022-10-10T22:20:59.343Z,0
2022-10-10T22:27:19.340Z,0
2022-10-10T22:33:42.334Z,0
2022-10-10T22:40:02.432Z,0
2022-10-10T22:46:25.500Z,0
2022-10-10T22:52:45.390Z,0
2022-10-10T22:59:08.432Z,0
2022-10-10T23:05:28.492Z,0
2022-10-10T23:11:51.433Z,0
2022-10-10T23:18:11.455Z,0
2022-10-10T23:24:34.327Z,0
2022-10-10T23:30:54.451Z,0
2022-10-10T23:37:17.440Z,0
2022-10-10T23:43:37.429Z,0
2022-10-10T23:50:00.408Z,0
2022-10-10T23:56:20.405Z,0
